• Join FlightAware (Why Join?)
  • Login
  • US Flag 
11:15PM EST


 

Airport Tracker/Info


-or-


 

Live Flight TrackerFlight Track Log ✈ UAL1151 ✈ 25-Jun-2013 ✈ KEWR - KSEA

Flight Track Log - Related Links

Times and Time Zones

All times are in EDT time to prevent confusion due to time zone crossing. See the UAL1151 flight status page for this flight to view local times or setup timezone preferences in your user account.

Time Position Orientation Groundspeed Altitude Reporting Facility
EDT Latitude Longitude Course Direction KTS MPH feet Rate Location/Type
05:27PM 40.6500 -74.1833 346° North 185 213 1,200  Level New York TRACON
05:28PM 40.6167 -74.2167 217° Southwest 223 257 2,900 1,800 Climbing New York TRACON
05:29PM 40.6667 -74.2667 323° Northwest 275 316 4,900 2,400 Climbing New York TRACON
05:30PM 41.0140 -74.2494 351° North  Level FlightAware Approximate
05:30PM 40.7333 -74.2833 349° North 264 304 7,800  Level New York TRACON
05:31PM 41.1262 -74.2754 346° North  Level FlightAware Approximate
05:31PM 40.8000 -74.2833 360° North 272 313 9,900  Level New York TRACON
05:32PM 41.2368 -74.3122 346° North  Level FlightAware Approximate
05:32PM 40.8833 -74.3000 351° North 285 328 10,500  Level New York TRACON
05:33PM 40.9667 -74.3167 351° North 285 328 12,000 1,380 Climbing New York TRACON
05:34PM 41.0333 -74.3167 360° North 303 349 13,200 1,560 Climbing New York TRACON
05:35PM 41.1344 -74.2836 14° North 317 365 15,300 1,260 Climbing New York Center
05:36PM 41.2150 -74.3069 348° North 340 391 16,000 300 Climbing New York Center
05:37PM 41.3222 -74.3347 349° North 354 407 16,000  Level New York Center
05:38PM 41.4025 -74.3722 341° North 347 399 16,000 540 Level New York Center
05:39PM 41.4633 -74.4889 305° West 332 382 17,100 1,320 Climbing New York Center
05:40PM 41.5119 -74.5997 300° West 369 425 18,700 1,680 Climbing New York Center
05:41PM 41.5678 -74.7358 299° West 381 438 20,500 1,440 Climbing New York Center
05:42PM 41.6239 -74.8614 301° West 386 444 21,600 1,080 Climbing New York Center
05:43PM 41.6797 -74.9925 300° West 391 450 22,800 1,200 Climbing New York Center
05:44PM 41.7392 -75.1297 300° West 411 473 24,100 1,260 Climbing New York Center
05:45PM 41.7967 -75.2669 299° West 421 484 25,300 960 Climbing New York Center
05:46PM 41.8558 -75.4047 300° West 426 490 26,000 780 Climbing New York Center
05:47PM 41.9128 -75.5453 299° West 431 496 26,900 840 Climbing New York Center
05:48PM 41.9733 -75.6917 299° West 431 496 27,800 1,020 Climbing New York Center
05:49PM 42.0339 -75.8358 300° West 442 509 29,000 1,260 Climbing New York Center
05:50PM 42.0925 -75.9744 300° West 442 509 30,400 1,200 Climbing New York Center
05:51PM 42.1486 -76.1161 298° West 436 502 31,500 1,020 Climbing New York Center
05:52PM 42.1983 -76.2628 295° West 431 496 32,500 900 Climbing New York Center
05:53PM 42.2544 -76.4450 293° West 437 503 33,600 600 Climbing Cleveland Center
05:54PM 42.3014 -76.5878 294° West 430 495 34,000 180 Climbing Cleveland Center
05:55PM 42.3481 -76.7339 293° West 430 495 34,000  Level Cleveland Center
05:56PM 42.3925 -76.8803 292° West 430 495 34,000  Level Cleveland Center
05:57PM 42.4386 -77.0239 294° West 430 495 34,000  Level Cleveland Center
05:58PM 42.4825 -77.1678 293° West 430 495 34,000  Level Cleveland Center
05:59PM 42.5264 -77.3092 293° West 425 489 34,000  Level Cleveland Center
06:00PM 42.5742 -77.4533 294° West 420 483 34,000 -60 Level Cleveland Center
06:01PM 42.6219 -77.6064 293° West 428 493 33,900  Descending Cleveland Center
06:02PM 42.6694 -77.7508 294° West 428 493 34,000  Climbing Cleveland Center
06:03PM 42.7233 -77.9153 294° West 433 498 34,000  Level Cleveland Center
06:04PM 42.7683 -78.0603 293° West 433 498 34,000  Level Cleveland Center
06:05PM 42.8153 -78.2114 293° West 433 498 34,000  Level Cleveland Center
06:06PM 42.8619 -78.3625 293° West 433 498 34,000  Level Cleveland Center
06:07PM 42.9086 -78.5111 293° West 433 498 34,000  Level Cleveland Center
06:08PM 42.9569 -78.6628 294° West 433 498 34,000  Level Cleveland Center
06:09PM 43.0053 -78.8117 294° West 433 498 34,000  Level Cleveland Center
06:10PM 43.0492 -78.9639 292° West 433 498 34,000  Level Cleveland Center
06:11PM 43.0833 -79.0667 295° West 430 495 34,000  Level Toronto Center
06:12PM 43.1333 -79.2167 295° West 440 506 34,000  Level Toronto Center
06:13PM 43.1667 -79.3833 285° West 430 495 34,000  Level Toronto Center
06:14PM 43.2167 -79.5167 297° West 430 495 34,000  Level Toronto Center
06:15PM 43.2500 -79.6833 285° West 430 495 34,000  Level Toronto Center
06:16PM 43.3000 -79.8333 295° West 430 495 34,000  Level Toronto Center
06:17PM 43.3500 -80.0000 292° West 430 495 34,000  Level Toronto Center
06:18PM 43.4000 -80.1333 297° West 430 495 34,000  Level Toronto Center
06:19PM 43.4333 -80.3000 285° West 430 495 34,000  Level Toronto Center
06:20PM 43.4833 -80.4333 297° West 430 495 34,000  Level Toronto Center
06:21PM 43.5333 -80.6000 293° West 440 506 34,000  Level Toronto Center
06:22PM 43.5833 -80.7667 293° West 440 506 34,000  Level Toronto Center
06:23PM 43.6000 -80.9167 279° West 440 506 34,000  Level Toronto Center
06:24PM 43.6500 -81.0833 293° West 440 506 34,000  Level Toronto Center
06:25PM 43.7000 -81.2167 297° West 440 506 34,000  Level Toronto Center
06:26PM 43.7500 -81.3833 293° West 440 506 34,000  Level Toronto Center
06:27PM 43.7833 -81.5500 286° West 440 506 34,000  Level Toronto Center
06:28PM 43.8333 -81.7167 293° West 440 506 34,000  Level Toronto Center
06:29PM 43.8833 -81.8500 298° West 440 506 34,000  Level Toronto Center
06:30PM 43.9000 -82.0167 278° West 440 506 34,000  Level Toronto Center
06:31PM 43.9500 -82.1833 293° West 440 506 34,000  Level Toronto Center
06:32PM 44.0000 -82.3167 298° West 440 506 34,000  Level Toronto Center
06:33PM 44.0500 -82.5167 289° West 440 506 34,000  Level Toronto Center
06:34PM 44.0833 -82.6500 289° West 440 506 34,000  Level Toronto Center
06:35PM 44.1167 -82.8167 286° West 440 506 34,000  Level Toronto Center
06:36PM 44.1667 -82.9833 293° West 430 495 34,000  Level Toronto Center
06:37PM 44.2167 -83.1500 293° West 430 495 34,000  Level Toronto Center
06:38PM 44.2333 -83.2833 280° West 430 495 34,000  Level Toronto Center
06:39PM 44.2833 -83.4333 295° West 430 495 34,000  Level Toronto Center
06:40PM 44.3333 -83.6000 293° West 430 495 34,000  Level Toronto Center
06:41PM 44.3500 -83.7667 278° West 430 495 34,000  Level Toronto Center
06:42PM 44.4000 -83.9333 293° West 440 506 34,000  Level Toronto Center
06:43PM 44.4500 -84.0667 298° West 430 495 34,000  Level Toronto Center
06:44PM 44.4742 -84.1544 291° West 431 496 34,000 -120 Level Minneapolis Center
06:45PM 44.5136 -84.3144 289° West 434 499 33,900  Descending Minneapolis Center
06:46PM 44.5531 -84.4733 289° West 434 499 34,000  Climbing Minneapolis Center
06:47PM 44.5903 -84.6322 288° West 432 497 33,900  Descending Minneapolis Center
06:48PM 44.6289 -84.7903 289° West 430 495 34,000  Climbing Minneapolis Center
06:49PM 44.6667 -84.9475 289° West 428 493 33,900  Descending Minneapolis Center
06:50PM 44.7194 -85.1683 289° West 428 493 34,000  Climbing Minneapolis Center
06:51PM 44.7556 -85.3250 288° West 425 489 34,000  Level Minneapolis Center
06:52PM 44.7922 -85.4825 288° West 425 489 34,000  Level Minneapolis Center
06:53PM 44.8306 -85.6489 288° West 426 490 34,000  Level Minneapolis Center
06:54PM 44.8675 -85.8081 288° West 428 493 34,000  Level Minneapolis Center
06:55PM 44.8964 -85.9350 288° West 428 493 34,000  Level Minneapolis Center
06:56PM 44.9389 -86.1247 288° West 426 490 34,000  Level Minneapolis Center
06:57PM 44.9822 -86.3144 288° West 426 490 34,000  Level Minneapolis Center
06:59PM 45.0175 -86.4736 287° West 426 490 34,000  Level Minneapolis Center
07:00PM 45.0589 -86.6636 287° West 424 488 34,000  Level Minneapolis Center
07:01PM 45.0956 -86.8344 287° West 425 489 34,000  Level Minneapolis Center
07:02PM 45.1303 -86.9922 287° West 422 486 34,000 -60 Level Minneapolis Center
07:03PM 45.1636 -87.1500 287° West 420 483 33,900  Descending Minneapolis Center
07:04PM 45.1978 -87.3100 287° West 424 488 34,000  Climbing Minneapolis Center
07:05PM 45.2381 -87.5022 287° West 427 491 34,000 -60 Level Minneapolis Center
07:06PM 45.2722 -87.6642 287° West 430 495 33,900 -60 Descending Minneapolis Center
07:07PM 45.3064 -87.8261 287° West 430 495 33,900  Level Minneapolis Center
07:08PM 45.3394 -87.9892 286° West 431 496 33,900  Level Minneapolis Center
07:09PM 45.3739 -88.1522 287° West 433 498 34,000  Climbing Minneapolis Center
07:10PM 45.4083 -88.3247 286° West 435 501 34,000  Level Minneapolis Center
07:11PM 45.4419 -88.4903 286° West 436 502 34,000  Level Minneapolis Center
07:12PM 45.4744 -88.6544 286° West 434 499 34,000  Level Minneapolis Center
07:13PM 45.5139 -88.8550 286° West 436 502 34,000  Level Minneapolis Center
07:14PM 45.5536 -89.0533 286° West 434 499 34,000  Level Minneapolis Center
07:16PM 45.5844 -89.2192 285° West 432 497 34,000  Level Minneapolis Center
07:17PM 45.6258 -89.4336 285° West 437 503 34,000  Level Minneapolis Center
07:18PM 45.6583 -89.5994 286° West 434 499 34,000  Level Minneapolis Center
07:19PM 45.6867 -89.7556 285° West 433 498 34,000  Level Minneapolis Center
07:20PM 45.7250 -89.9569 285° West 434 499 34,000  Level Minneapolis Center
07:21PM 45.7556 -90.1233 285° West 431 496 34,000  Level Minneapolis Center
07:22PM 45.7861 -90.2875 285° West 426 490 34,000  Level Minneapolis Center
07:23PM 45.8156 -90.4508 285° West 423 487 34,000  Level Minneapolis Center
07:24PM 45.8450 -90.6142 285° West 422 486 34,000  Level Minneapolis Center
07:25PM 45.8742 -90.7769 284° West 422 486 34,000  Level Minneapolis Center
07:26PM 45.9039 -90.9408 285° West 423 487 34,000  Level Minneapolis Center
07:27PM 45.9386 -91.1386 284° West 425 489 34,000  Level Minneapolis Center
07:28PM 45.9672 -91.3039 284° West 426 490 34,000  Level Minneapolis Center
07:29PM 45.9894 -91.4378 283° West 428 493 34,000  Level Minneapolis Center
07:30PM 46.0222 -91.6283 284° West 432 497 34,000  Level Minneapolis Center
07:31PM 46.0578 -91.8283 284° West 433 498 34,000  Level Minneapolis Center
07:32PM 46.0844 -91.9919 283° West 426 490 34,000  Level Minneapolis Center
07:33PM 46.1114 -92.1592 283° West 429 494 34,000  Level Minneapolis Center
07:34PM 46.1386 -92.3247 283° West 428 493 34,000  Level Minneapolis Center
07:35PM 46.1653 -92.4906 283° West 428 493 34,000  Level Minneapolis Center
07:36PM 46.1972 -92.6900 283° West 428 493 34,000  Level Minneapolis Center
07:37PM 46.2203 -92.8347 283° West 428 493 34,000  Level Minneapolis Center
07:38PM 46.2517 -93.0372 283° West 429 494 34,000 -60 Level Minneapolis Center
07:40PM 46.2772 -93.2061 282° West 429 494 33,900  Descending Minneapolis Center
07:41PM 46.3086 -93.4072 283° West 428 493 34,000  Climbing Minneapolis Center
07:42PM 46.3336 -93.5744 282° West 427 491 34,000  Level Minneapolis Center
07:43PM 46.3583 -93.7431 282° West 427 491 34,000 -60 Level Minneapolis Center
07:44PM 46.3833 -93.9111 282° West 427 491 33,900 -60 Descending Minneapolis Center
07:45PM 46.4078 -94.0789 282° West 427 491 33,900 240 Level Minneapolis Center
07:46PM 46.4378 -94.2839 282° West 431 496 34,400 720 Climbing Minneapolis Center
07:47PM 46.4617 -94.4544 282° West 432 497 35,500 660 Climbing Minneapolis Center
07:48PM 46.4856 -94.6214 282° West 427 491 36,000 120 Climbing Minneapolis Center
07:49PM 46.5142 -94.8219 282° West 425 489 35,900 -60 Descending Minneapolis Center
07:50PM 46.5364 -94.9894 281° West 424 488 35,900  Level Minneapolis Center
07:51PM 46.5597 -95.1572 281° West 425 489 36,000  Climbing Minneapolis Center
07:52PM 46.5867 -95.3594 281° West 427 491 36,000  Level Minneapolis Center
07:54PM 46.6137 -95.5556 281° West  Level FlightAware Approximate
07:54PM 46.6311 -95.6867 281° West 432 497 36,000  Level Minneapolis Center
07:55PM 46.6608 -95.8558 284° West 432 497 36,000  Level Minneapolis Center
07:56PM 46.6994 -96.0203 289° West 430 495 36,000  Level Minneapolis Center
07:57PM 46.7453 -96.2181 289° West 430 495 36,000 -60 Level Minneapolis Center
07:58PM 46.7783 -96.3850 286° West 429 494 35,900  Descending Minneapolis Center
08:00PM 46.8097 -96.5525 285° West 429 494 36,000  Climbing Minneapolis Center
08:01PM 46.8439 -96.7542 284° West 428 493 36,000 -60 Level Minneapolis Center
08:02PM 46.8628 -96.9264 279° West 429 494 35,900  Descending Minneapolis Center
08:03PM 46.8797 -97.0636 280° West 429 494 36,000  Climbing Minneapolis Center
08:04PM 46.9031 -97.2694 279° West 429 494 36,000  Level Minneapolis Center
08:05PM 46.9231 -97.4425 280° West 431 496 36,000  Level Minneapolis Center
08:06PM 46.9417 -97.6169 279° West 433 498 36,000 -60 Level Minneapolis Center
08:07PM 46.9606 -97.7944 279° West 438 504 35,900 -60 Descending Minneapolis Center
08:08PM 46.9831 -98.0050 279° West 435 501 35,900  Level Minneapolis Center
08:09PM 47.0053 -98.2197 279° West 440 506 35,900  Level Minneapolis Center
08:10PM 47.0239 -98.3958 279° West 438 504 35,900  Level Minneapolis Center
08:11PM 47.0133 -98.6053 266° West 432 497 35,900  Level Minneapolis Center
08:12PM 46.9944 -98.7775 261° West 431 496 35,900  Level Minneapolis Center
08:13PM 46.9750 -98.9478 261° West 426 490 36,000  Climbing Minneapolis Center
08:14PM 46.9542 -99.1203 260° West 429 494 36,000  Level Minneapolis Center
08:15PM 46.9342 -99.2911 260° West 428 493 36,000  Level Minneapolis Center
08:16PM 46.9092 -99.4967 260° West 428 493 36,000 -60 Level Minneapolis Center
08:18PM 46.8894 -99.6700 261° West 431 496 35,900 -60 Descending Minneapolis Center
08:19PM 46.8633 -99.8767 260° West 432 497 35,900  Level Minneapolis Center
08:20PM 46.8406 -100.0511 259° West 436 502 36,000  Climbing Minneapolis Center
08:21PM 46.8203 -100.2244 260° West 435 501 36,000  Level Minneapolis Center
08:22PM 46.7958 -100.4083 259° West 435 501 36,000  Level Minneapolis Center
08:23PM 46.7728 -100.5825 259° West 437 503 36,000  Level Minneapolis Center
08:24PM 46.7728 -100.7617 270° West 444 511 36,000  Level Minneapolis Center
08:25PM 46.7950 -100.9753 279° West 446 513 36,000  Level Minneapolis Center
08:26PM 46.8175 -101.1875 279° West 445 512 36,000  Level Minneapolis Center
08:27PM 46.8381 -101.3594 280° West 436 502 36,000  Level Minneapolis Center
08:28PM 46.8553 -101.5314 278° West 432 497 36,000  Level Minneapolis Center
08:29PM 46.8719 -101.6947 279° West 429 494 36,000 -60 Level Minneapolis Center
08:30PM 46.8903 -101.8628 279° West 424 488 35,900  Descending Minneapolis Center
08:31PM 46.9125 -102.0653 279° West 421 484 36,000  Climbing Minneapolis Center
08:32PM 46.9289 -102.2344 278° West 421 484 36,000  Level Minneapolis Center
08:33PM 46.9458 -102.4006 279° West 417 480 36,000  Level Minneapolis Center
08:34PM 46.9622 -102.5667 278° West 415 478 36,000  Level Minneapolis Center
08:35PM 46.9781 -102.7306 278° West 411 473 36,000  Level Minneapolis Center
08:37PM 46.9928 -102.8944 278° West 409 471 36,000 -60 Level Minneapolis Center
08:38PM 47.0106 -103.0925 278° West 408 470 35,900  Descending Minneapolis Center
08:39PM 47.0289 -103.2886 278° West 406 467 36,000  Climbing Minneapolis Center
08:40PM 47.0439 -103.4531 278° West 407 468 36,000 -60 Level Minneapolis Center
08:41PM 47.0581 -103.6186 277° West 409 471 35,900  Descending Minneapolis Center
08:42PM 47.0719 -103.7864 277° West 410 472 36,000  Climbing Minneapolis Center
08:43PM 47.0858 -103.9533 277° West 411 473 36,000  Level Minneapolis Center
08:44PM 47.0992 -104.1197 277° West 412 474 36,000  Level Minneapolis Center
08:45PM 47.1094 -104.2528 277° West 410 472 36,000  Level Minneapolis Center
08:46PM 47.1275 -104.4831 277° West 407 468 36,000 -60 Level Minneapolis Center
08:47PM 47.1444 -104.7161 276° West 407 468 35,900  Descending Salt Lake Center
08:48PM 47.1558 -104.8794 276° West 405 466 36,000  Climbing Salt Lake Center
08:49PM 47.1678 -105.0444 276° West 405 466 35,900  Descending Salt Lake Center
08:51PM 47.1803 -105.2103 276° West 407 468 36,000  Climbing Salt Lake Center
08:52PM 47.1936 -105.3772 277° West 409 471 36,000  Level Salt Lake Center
08:53PM 47.2042 -105.5436 275° West 409 471 36,000 -60 Level Salt Lake Center
08:54PM 47.2175 -105.7419 276° West 409 471 35,900 -60 Descending Salt Lake Center
08:55PM 47.2283 -105.9056 276° West 406 467 35,900  Level Salt Lake Center
08:56PM 47.2397 -106.0708 276° West 406 467 36,000  Climbing Salt Lake Center
08:57PM 47.2506 -106.2350 276° West 404 465 36,000 -60 Level Salt Lake Center
08:58PM 47.2600 -106.3969 275° West 400 460 35,900  Descending Salt Lake Center
08:59PM 47.2706 -106.5594 276° West 400 460 36,000  Climbing Salt Lake Center
09:00PM 47.2825 -106.7564 275° West 403 464 36,000  Level Salt Lake Center
09:01PM 47.2931 -106.9197 276° West 402 463 36,000  Level Salt Lake Center
09:02PM 47.3006 -107.0842 274° West 403 464 36,000  Level Salt Lake Center
09:03PM 47.3100 -107.2481 275° West 402 463 36,000  Level Salt Lake Center
09:04PM 47.3183 -107.4111 274° West 402 463 36,000  Level Salt Lake Center
09:05PM 47.3289 -107.5906 275° West 400 460 36,000 -60 Level Salt Lake Center
09:06PM 47.3372 -107.7500 274° West 394 453 35,900  Descending Salt Lake Center
09:07PM 47.3442 -107.9094 274° West 391 450 36,000  Climbing Salt Lake Center
09:08PM 47.3528 -108.0692 275° West 392 451 35,900  Descending Salt Lake Center
09:09PM 47.3592 -108.2300 273° West 394 453 36,000  Climbing Salt Lake Center
09:10PM 47.3667 -108.3903 274° West 393 452 35,900 -60 Descending Salt Lake Center
09:11PM 47.3742 -108.5500 274° West 392 451 35,900  Level Salt Lake Center
09:12PM 47.3828 -108.7431 274° West 393 452 35,900  Level Salt Lake Center
09:13PM 47.3886 -108.9036 273° West 393 452 35,900  Level Salt Lake Center
09:14PM 47.3947 -109.0617 273° West 390 449 35,900  Level Salt Lake Center
09:15PM 47.4006 -109.2206 273° West 388 447 36,000  Climbing Salt Lake Center
09:16PM 47.4064 -109.3794 273° West 389 448 36,000  Level Salt Lake Center
09:17PM 47.4114 -109.5411 273° West 393 452 36,000  Level Salt Lake Center
09:18PM 47.4164 -109.7033 273° West 397 457 36,000  Level Salt Lake Center
09:19PM 47.4225 -109.8636 273° West 393 452 36,000 -60 Level Salt Lake Center
09:20PM 47.4264 -110.0239 272° West 391 450 35,900  Descending Salt Lake Center
09:21PM 47.4333 -110.2136 273° West 388 447 36,000  Climbing Salt Lake Center
09:22PM 47.4369 -110.3711 272° West 384 442 36,000  Level Salt Lake Center
09:23PM 47.4411 -110.5289 272° West 386 444 36,000  Level Salt Lake Center
09:24PM 47.4453 -110.6858 272° West 383 441 36,000  Level Salt Lake Center
09:25PM 47.4492 -110.8433 272° West 384 442 36,000  Level Salt Lake Center
09:26PM 47.4519 -110.9997 272° West 381 438 36,000 -60 Level Salt Lake Center
09:27PM 47.4542 -111.1569 271° West 380 437 35,900 -60 Descending Salt Lake Center
09:28PM 47.4572 -111.3167 272° West 381 438 35,900  Level Salt Lake Center
09:29PM 47.4606 -111.4764 272° West 383 441 35,900  Level Salt Lake Center
09:31PM 47.4636 -111.6356 272° West 384 442 35,900  Level Salt Lake Center
09:32PM 47.4656 -111.7922 271° West 382 440 35,900  Level Salt Lake Center
09:33PM 47.4675 -111.9500 271° West 384 442 35,900  Level Salt Lake Center
09:34PM 47.4706 -112.1400 271° West 385 443 36,000  Climbing Salt Lake Center
09:35PM 47.4706 -112.2956 270° West 381 438 36,000  Level Salt Lake Center
09:36PM 47.4733 -112.4519 272° West 382 440 36,000  Level Salt Lake Center
09:37PM 47.4747 -112.6083 271° West 381 438 36,000  Level Salt Lake Center
09:38PM 47.4747 -112.7642 270° West 382 440 36,000  Level Salt Lake Center
09:39PM 47.4764 -112.9342 271° West 385 443 36,000  Level Salt Lake Center
09:40PM 47.4769 -113.0933 270° West 387 445 36,000  Level Salt Lake Center
09:41PM 47.4772 -113.2531 270° West 389 448 36,000 -60 Level Salt Lake Center
09:42PM 47.4775 -113.4106 270° West 386 444 35,900 -60 Descending Salt Lake Center
09:43PM 47.4772 -113.5689 270° West 385 443 35,900  Level Salt Lake Center
09:44PM 47.4772 -113.7289 270° West 379 436 36,000  Climbing Salt Lake Center
09:45PM 47.4767 -113.8817 270° West 380 437 36,000  Level Salt Lake Center
09:46PM 47.4761 -114.0703 270° West 383 441 36,000 -60 Level Salt Lake Center
09:47PM 47.4750 -114.2294 269° West 386 444 35,900  Descending Salt Lake Center
09:48PM 47.4742 -114.3881 270° West 384 442 36,000  Climbing Salt Lake Center
09:49PM 47.4719 -114.5475 269° West 386 444 36,000 -60 Level Salt Lake Center
09:50PM 47.4708 -114.6756 269° West 387 445 35,900  Descending Seattle Center
09:51PM 47.4694 -114.8342 269° West 387 445 36,000  Climbing Seattle Center
09:52PM 47.4675 -114.9944 269° West 388 447 35,900  Descending Seattle Center
09:53PM 47.4656 -115.1528 269° West 386 444 36,000  Climbing Seattle Center
09:54PM 47.4631 -115.3125 269° West 389 448 35,900  Descending Seattle Center
09:55PM 47.4608 -115.4700 269° West 385 443 36,000  Climbing Seattle Center
09:56PM 47.4575 -115.6269 268° West 383 441 36,000  Level Seattle Center
09:57PM 47.4661 -115.8081 274° West 386 444 36,000 -60 Level Seattle Center
09:58PM 47.4767 -115.9678 276° West 390 449 35,900  Descending Seattle Center
09:59PM 47.4853 -116.1275 275° West 390 449 36,000  Climbing Seattle Center
10:00PM 47.4947 -116.2856 275° West 388 447 35,900  Descending Seattle Center
10:01PM 47.5039 -116.4450 275° West 391 450 36,000  Climbing Seattle Center
10:02PM 47.5131 -116.6056 275° West 392 451 35,900 -60 Descending Seattle Center
10:03PM 47.5219 -116.7683 275° West 397 457 35,900  Level Seattle Center
10:04PM 47.5308 -116.9303 275° West 393 452 36,000  Climbing Seattle Center
10:05PM 47.5403 -117.1031 275° West 399 459 36,000  Level Seattle Center
10:06PM 47.5475 -117.2681 274° West 395 455 36,000 -60 Level Seattle Center
10:07PM 47.5558 -117.4333 274° West 401 461 35,900  Descending Seattle Center
10:08PM 47.5631 -117.5942 274° West 395 455 36,000  Climbing Seattle Center
10:09PM 47.5769 -117.7553 277° West 395 455 36,000  Level Seattle Center
10:10PM 47.5931 -117.9167 278° West 397 457 36,000  Level Seattle Center
10:11PM 47.6075 -118.0769 278° West 394 453 36,000  Level Seattle Center
10:12PM 47.6247 -118.2708 278° West 396 456 36,000 -60 Level Seattle Center
10:13PM 47.6403 -118.4339 278° West 400 460 35,900  Descending Seattle Center
10:14PM 47.6539 -118.5975 277° West 401 461 36,000  Climbing Seattle Center
10:15PM 47.6689 -118.7606 278° West 401 461 36,000  Level Seattle Center
10:16PM 47.6819 -118.9228 277° West 397 457 36,000 -60 Level Seattle Center
10:17PM 47.6961 -119.0864 277° West 400 460 35,900  Descending Seattle Center
10:18PM 47.7100 -119.2517 277° West 403 464 36,000  Climbing Seattle Center
10:19PM 47.7228 -119.4172 277° West 404 465 36,000  Level Seattle Center
10:20PM 47.7358 -119.5833 277° West 405 466 36,000  Level Seattle Center
10:21PM 47.7508 -119.7469 278° West 403 464 36,000  Level Seattle Center
10:22PM 47.7644 -119.9114 277° West 402 463 36,000 -840 Level Seattle Center
10:23PM 47.7775 -120.1089 276° West 400 460 34,400 -2,340 Descending Seattle Center
10:24PM 47.7886 -120.2750 276° West 404 465 31,300 -2,760 Descending Seattle Center
10:25PM 47.8014 -120.4422 277° West 407 468 28,800 -2,400 Descending Seattle Center
10:26PM 47.8131 -120.6064 276° West 401 461 26,500 -2,280 Descending Seattle Center
10:27PM 47.8236 -120.7669 276° West 394 453 24,200 -2,220 Descending Seattle Center
10:28PM 47.8389 -120.9289 278° West 379 436 22,000 -2,280 Descending Seattle Center
10:29PM 47.8481 -121.0800 275° West 366 421 19,700 -2,280 Descending Seattle Center
10:30PM 47.8572 -121.2342 275° West 352 405 17,500 -1,980 Descending Seattle Center
10:32PM 47.8639 -121.3586 275° West 341 392 15,700 -1,860 Descending Seattle Center
10:33PM 47.8731 -121.4958 276° West 338 389 13,700 -1,620 Descending Seattle Center
10:34PM 47.8828 -121.6486 275° West 308 354 12,500 -1,140 Descending Seattle Center
10:35PM 47.8725 -121.7514 262° West 256 295 11,400 -1,320 Descending Seattle Center
10:36PM 47.8519 -121.8508 253° West 256 295 9,900 -1,500 Descending Seattle Center
10:37PM 47.8347 -121.9503 256° West 252 290 8,400 -1,560 Descending Seattle Center
10:38PM 47.8169 -122.0500 255° West 252 290 6,800 -1,500 Descending Seattle Center
10:39PM 47.7969 -122.1603 255° West 252 290 5,400 -900 Descending Seattle Center
10:40PM 47.7917 -122.2594 266° West 251 289 5,000 -600 Descending Seattle Center
10:41PM 47.7589 -122.3083 225° Southwest 195 224 4,200 -540 Descending Seattle Center
10:42PM 47.7072 -122.3064 179° South 186 214 4,000 -120 Descending Seattle Center
10:43PM 47.6553 -122.3067 180° South 186 214 4,000  Level Seattle Center